createdAt,value
2017-05-15T00:00:51.617Z,97.80
2017-05-15T00:01:53.555Z,98.38
2017-05-15T00:02:55.374Z,97.80
2017-05-15T00:03:57.215Z,97.42
2017-05-15T00:04:59.029Z,97.71
2017-05-15T00:06:00.876Z,98.19
2017-05-15T00:07:02.915Z,97.80
2017-05-15T00:08:04.735Z,97.71
2017-05-15T00:09:06.578Z,97.61
2017-05-15T00:10:08.398Z,98.09
2017-05-15T00:11:10.232Z,97.42
2017-05-15T00:12:12.098Z,97.90
2017-05-15T00:13:13.942Z,98.19
2017-05-15T00:14:15.783Z,97.04
2017-05-15T00:15:17.623Z,97.42
2017-05-15T00:16:19.438Z,98.09
2017-05-15T00:17:21.685Z,97.71
2017-05-15T00:18:23.527Z,98.09
2017-05-15T00:19:25.371Z,98.38
2017-05-15T00:20:27.208Z,98.57
2017-05-15T00:21:29.029Z,98.57
2017-05-15T00:22:30.971Z,98.66
2017-05-15T00:23:32.806Z,98.66
2017-05-15T00:24:34.666Z,98.90
2017-05-15T00:25:36.505Z,98.76
2017-05-15T00:26:38.344Z,98.76
2017-05-15T00:27:40.385Z,98.19
2017-05-15T00:28:42.228Z,98.47
2017-05-15T00:29:44.043Z,98.28
2017-05-15T00:30:45.887Z,98.66
2017-05-15T00:31:47.727Z,97.90
2017-05-15T00:32:49.572Z,98.19
2017-05-15T00:33:51.416Z,98.47
2017-05-15T00:34:53.261Z,98.28
2017-05-15T00:35:55.103Z,98.38
2017-05-15T00:36:56.941Z,98.09
2017-05-15T00:37:59.096Z,98.86
2017-05-15T00:39:00.925Z,98.66
2017-05-15T00:40:02.774Z,98.76
2017-05-15T00:41:04.607Z,98.61
2017-05-15T00:42:06.427Z,99.33
2017-05-15T00:43:08.373Z,99.05
2017-05-15T00:44:10.262Z,98.95
2017-05-15T00:45:12.101Z,98.33
2017-05-15T00:46:13.895Z,98.24
2017-05-15T00:47:15.740Z,97.95
2017-05-15T00:48:17.961Z,98.81
2017-05-15T00:49:19.800Z,99.38
2017-05-15T00:50:21.634Z,98.81
2017-05-15T00:51:23.450Z,99.29
2017-05-15T00:52:25.294Z,99.19
2017-05-15T00:53:27.137Z,99.67
2017-05-15T00:54:28.979Z,98.71
2017-05-15T00:55:30.794Z,99.19
2017-05-15T00:56:32.638Z,99.00
2017-05-15T00:57:34.483Z,99.38
2017-05-15T00:58:36.522Z,99.38
2017-05-15T00:59:38.365Z,99.96
2017-05-15T01:00:40.205Z,99.57
2017-05-15T01:01:42.051Z,99.38
2017-05-15T01:02:43.894Z,99.29
2017-05-15T01:03:45.837Z,99.19
2017-05-15T01:04:58.803Z,99.38
2017-05-15T01:06:00.647Z,99.67
2017-05-15T01:07:02.490Z,99.19
2017-05-15T01:08:04.332Z,99.57
2017-05-15T01:09:06.472Z,98.90
2017-05-15T01:10:08.293Z,99.38
2017-05-15T01:11:10.133Z,99.10
2017-05-15T01:12:11.952Z,99.96
2017-05-15T01:13:13.797Z,99.86
2017-05-15T01:14:15.686Z,99.86
2017-05-15T01:15:17.483Z,99.19
2017-05-15T01:16:19.327Z,99.38
2017-05-15T01:17:21.168Z,99.38
2017-05-15T01:18:22.988Z,99.19
2017-05-15T01:19:25.203Z,99.29
2017-05-15T01:20:27.045Z,99.57
2017-05-15T01:21:28.889Z,99.86
2017-05-15T01:22:30.709Z,99.99
2017-05-15T01:23:32.555Z,99.99
2017-05-15T01:24:34.466Z,99.76
2017-05-15T01:25:36.277Z,99.48
2017-05-15T01:26:38.099Z,99.57
2017-05-15T01:27:39.913Z,99.29
2017-05-15T01:28:41.761Z,99.57
2017-05-15T01:29:43.805Z,99.33
2017-05-15T01:30:45.644Z,99.14
2017-05-15T01:31:47.461Z,99.00
2017-05-15T01:32:49.303Z,99.29
2017-05-15T01:33:51.144Z,98.95
2017-05-15T01:34:53.009Z,98.38
2017-05-15T01:35:54.842Z,98.57
2017-05-15T01:36:56.688Z,98.47
2017-05-15T01:37:58.529Z,99.04
2017-05-15T01:39:00.366Z,99.14
2017-05-15T01:40:02.586Z,98.28
2017-05-15T01:41:04.425Z,98.28
2017-05-15T01:42:06.251Z,99.24
2017-05-15T01:43:08.089Z,99.52
2017-05-15T01:44:09.940Z,99.62
2017-05-15T01:45:11.807Z,99.99
2017-05-15T01:46:13.641Z,99.99
2017-05-15T01:47:15.488Z,99.81
2017-05-15T01:48:17.331Z,99.71
2017-05-15T01:49:19.148Z,99.71
2017-05-15T01:50:21.237Z,99.90
2017-05-15T01:51:23.080Z,99.99
2017-05-15T01:52:24.935Z,99.99
2017-05-15T01:53:26.771Z,99.99
2017-05-15T01:54:28.613Z,99.99
2017-05-15T01:55:30.481Z,99.99
2017-05-15T01:56:32.322Z,99.90
2017-05-15T01:57:34.165Z,99.99
2017-05-15T01:58:35.983Z,99.90
2017-05-15T01:59:37.796Z,99.81
2017-05-15T02:00:40.114Z,98.95
2017-05-15T02:01:41.938Z,99.33
2017-05-15T02:02:43.774Z,98.75
2017-05-15T02:03:45.620Z,98.66
2017-05-15T02:04:47.441Z,99.04
2017-05-15T02:05:49.304Z,99.33
2017-05-15T02:06:51.150Z,99.33
2017-05-15T02:07:52.995Z,99.33
2017-05-15T02:08:54.831Z,99.14
2017-05-15T02:09:56.650Z,98.95
2017-05-15T02:10:58.796Z,99.09
2017-05-15T02:12:00.640Z,99.04
2017-05-15T02:13:02.479Z,99.04
2017-05-15T02:14:04.315Z,99.19
2017-05-15T02:15:06.131Z,99.19
2017-05-15T02:16:07.977Z,99.38
2017-05-15T02:17:09.817Z,99.95
2017-05-15T02:18:11.633Z,99.99
2017-05-15T02:19:13.461Z,99.57
2017-05-15T02:20:15.322Z,99.81
2017-05-15T02:21:17.562Z,99.95
2017-05-15T02:22:19.375Z,99.28
2017-05-15T02:23:21.196Z,99.57
2017-05-15T02:24:23.025Z,99.99
2017-05-15T02:25:24.851Z,99.99
2017-05-15T02:26:26.696Z,99.99
2017-05-15T02:27:28.537Z,99.99
2017-05-15T02:28:30.378Z,99.90
2017-05-15T02:29:32.220Z,99.99
2017-05-15T02:30:34.062Z,99.99
2017-05-15T02:31:36.158Z,99.99
2017-05-15T02:32:37.997Z,99.99
2017-05-15T02:33:39.837Z,99.99
2017-05-15T02:34:41.682Z,99.99
2017-05-15T02:35:43.519Z,99.90
2017-05-15T02:36:45.390Z,99.81
2017-05-15T02:37:47.228Z,99.99
2017-05-15T02:38:49.051Z,99.62
2017-05-15T02:39:50.888Z,99.99
2017-05-15T02:40:52.709Z,99.99
2017-05-15T02:41:54.952Z,99.85
2017-05-15T02:42:56.792Z,99.38
2017-05-15T02:43:58.611Z,99.33
2017-05-15T02:45:00.426Z,97.75
2017-05-15T02:46:02.242Z,98.13
2017-05-15T02:47:04.114Z,98.52
2017-05-15T02:48:05.959Z,98.61
2017-05-15T02:49:07.802Z,98.71
2017-05-15T02:50:09.649Z,99.28
2017-05-15T02:51:11.496Z,99.09
2017-05-15T02:52:13.784Z,99.48
2017-05-15T02:53:15.639Z,99.48
2017-05-15T02:54:17.521Z,99.28
2017-05-15T02:55:19.327Z,98.90
2017-05-15T02:56:21.162Z,99.48
2017-05-15T02:57:23.034Z,99.66
2017-05-15T02:58:24.964Z,99.99
2017-05-15T02:59:26.824Z,99.99
2017-05-15T03:00:28.667Z,99.85
2017-05-15T03:01:30.507Z,99.99
2017-05-15T03:02:32.574Z,99.81
2017-05-15T03:03:34.467Z,99.90
2017-05-15T03:04:36.289Z,99.76
2017-05-15T03:05:38.133Z,99.76
2017-05-15T03:06:39.979Z,99.85
2017-05-15T03:07:41.819Z,99.28
2017-05-15T03:08:43.637Z,99.85
2017-05-15T03:09:45.483Z,99.95
2017-05-15T03:10:47.334Z,99.28
2017-05-15T03:11:49.174Z,99.48
2017-05-15T03:12:51.319Z,99.28
2017-05-15T03:13:53.141Z,99.28
2017-05-15T03:14:54.990Z,99.85
2017-05-15T03:15:56.831Z,99.85
2017-05-15T03:16:58.677Z,99.24
2017-05-15T03:18:00.524Z,99.48
2017-05-15T03:19:02.342Z,99.38
2017-05-15T03:20:04.159Z,99.28
2017-05-15T03:21:06.202Z,99.76
2017-05-15T03:22:08.024Z,99.09
2017-05-15T03:23:10.145Z,99.28
2017-05-15T03:24:11.963Z,99.48
2017-05-15T03:25:13.787Z,99.48
2017-05-15T03:26:15.624Z,99.48
2017-05-15T03:27:17.472Z,99.19
2017-05-15T03:28:19.321Z,98.61
2017-05-15T03:29:21.168Z,99.28
2017-05-15T03:30:22.987Z,99.28
2017-05-15T03:31:24.804Z,99.28
2017-05-15T03:32:26.653Z,99.09
2017-05-15T03:33:28.601Z,99.19
2017-05-15T03:34:30.456Z,99.33
2017-05-15T03:35:32.299Z,98.90
2017-05-15T03:36:34.150Z,98.71
2017-05-15T03:37:35.997Z,98.80
2017-05-15T03:38:37.843Z,98.99
2017-05-15T03:39:39.694Z,99.14
2017-05-15T03:40:41.538Z,99.14
2017-05-15T03:41:43.381Z,98.38
2017-05-15T03:42:45.202Z,98.28
2017-05-15T03:43:47.424Z,98.04
2017-05-15T03:44:49.272Z,96.99
2017-05-15T03:45:51.121Z,97.08
2017-05-15T03:46:52.942Z,96.51
2017-05-15T03:47:54.795Z,96.47
2017-05-15T03:48:56.743Z,95.70
2017-05-15T03:49:58.589Z,95.79
2017-05-15T03:51:00.433Z,94.60
2017-05-15T03:52:02.287Z,94.02
2017-05-15T03:53:04.132Z,92.87
2017-05-15T03:54:06.362Z,92.21
2017-05-15T03:55:08.207Z,91.34
2017-05-15T03:56:10.032Z,91.15
2017-05-15T03:57:11.886Z,90.43
2017-05-15T03:58:13.731Z,88.90
2017-05-15T03:59:15.580Z,86.54
2017-05-15T04:00:17.433Z,85.11
2017-05-15T04:01:19.256Z,83.61
2017-05-15T04:02:21.079Z,83.18
2017-05-15T04:03:22.898Z,80.87
2017-05-15T04:04:24.979Z,80.20
2017-05-15T04:05:26.827Z,78.52
2017-05-15T04:06:28.678Z,77.75
2017-05-15T04:07:30.508Z,77.21
2017-05-15T04:08:32.354Z,77.01
2017-05-15T04:09:37.581Z,76.34
2017-05-15T04:10:39.437Z,75.96
2017-05-15T04:11:41.262Z,75.62
2017-05-15T04:12:43.083Z,74.94
2017-05-15T04:13:44.943Z,74.21
2017-05-15T04:14:46.990Z,73.77
2017-05-15T04:15:48.846Z,73.09
2017-05-15T04:16:50.693Z,73.03
2017-05-15T04:17:52.525Z,72.26
2017-05-15T04:18:54.373Z,71.97
2017-05-15T04:19:56.234Z,72.11
2017-05-15T04:20:58.086Z,72.97
2017-05-15T04:21:59.946Z,73.36
2017-05-15T04:23:01.793Z,73.03
2017-05-15T04:24:03.653Z,73.71
2017-05-15T04:25:05.906Z,73.22
2017-05-15T04:26:07.733Z,73.47
2017-05-15T04:27:09.558Z,73.67
2017-05-15T04:28:11.408Z,75.27
2017-05-15T04:29:13.264Z,76.04
2017-05-15T04:30:15.117Z,76.36
2017-05-15T04:31:16.969Z,75.88
2017-05-15T04:32:18.796Z,74.67
2017-05-15T04:33:20.648Z,73.80
2017-05-15T04:34:22.509Z,72.88
2017-05-15T04:35:24.569Z,72.49
2017-05-15T04:36:26.416Z,72.53
2017-05-15T04:37:28.249Z,70.79
2017-05-15T04:38:30.105Z,68.04
2017-05-15T04:39:31.960Z,67.65
2017-05-15T04:40:33.807Z,67.46
2017-05-15T04:41:35.640Z,67.26
2017-05-15T04:42:37.491Z,67.61
2017-05-15T04:43:39.343Z,67.61
2017-05-15T04:44:41.199Z,67.42
2017-05-15T04:45:43.055Z,66.81
2017-05-15T04:46:44.913Z,66.33
2017-05-15T04:47:46.769Z,68.22
2017-05-15T04:48:48.623Z,69.57
2017-05-15T04:49:50.477Z,69.92
2017-05-15T04:50:52.431Z,72.19
2017-05-15T04:51:54.288Z,72.29
2017-05-15T04:52:56.141Z,72.44
2017-05-15T04:53:57.988Z,72.92
2017-05-15T04:54:59.843Z,74.04
2017-05-15T04:56:01.715Z,74.81
2017-05-15T04:57:03.545Z,75.54
2017-05-15T04:58:05.401Z,75.40
2017-05-15T04:59:07.246Z,76.37
2017-05-15T05:00:09.072Z,77.61
2017-05-15T05:01:10.931Z,77.95
2017-05-15T05:02:12.782Z,78.82
2017-05-15T05:03:14.635Z,79.78
2017-05-15T05:04:16.483Z,79.49
2017-05-15T05:05:18.312Z,80.07
2017-05-15T05:06:20.457Z,80.45
2017-05-15T05:07:22.288Z,80.93
2017-05-15T05:08:24.138Z,81.02
2017-05-15T05:09:25.966Z,81.41
2017-05-15T05:10:27.812Z,81.12
2017-05-15T05:11:29.967Z,81.66
2017-05-15T05:12:31.818Z,82.23
2017-05-15T05:13:33.671Z,82.23
2017-05-15T05:14:35.518Z,82.71
2017-05-15T05:15:37.376Z,82.81
2017-05-15T05:16:39.222Z,83.71
2017-05-15T05:17:41.078Z,83.14
2017-05-15T05:18:42.934Z,83.23
2017-05-15T05:19:44.785Z,83.14
2017-05-15T05:20:46.637Z,83.42
2017-05-15T05:21:48.541Z,83.52
2017-05-15T05:22:50.394Z,83.33
2017-05-15T05:23:52.223Z,83.33
2017-05-15T05:24:54.080Z,83.04
2017-05-15T05:25:55.925Z,83.56
2017-05-15T05:26:57.782Z,83.27
2017-05-15T05:27:59.608Z,83.27
2017-05-15T05:29:01.461Z,82.60
2017-05-15T05:30:03.315Z,82.70
2017-05-15T05:31:05.125Z,83.18
2017-05-15T05:32:07.454Z,83.27
2017-05-15T05:33:09.303Z,82.35
2017-05-15T05:34:11.134Z,81.78
2017-05-15T05:35:12.986Z,82.16
2017-05-15T05:36:14.827Z,82.45
2017-05-15T05:37:16.685Z,81.35
2017-05-15T05:38:18.535Z,81.35
2017-05-15T05:39:20.385Z,82.12
2017-05-15T05:40:22.237Z,82.89
2017-05-15T05:41:24.092Z,83.18
2017-05-15T05:42:25.943Z,82.41
2017-05-15T05:43:27.795Z,82.89
2017-05-15T05:44:29.653Z,83.37
2017-05-15T05:45:31.501Z,84.04
2017-05-15T05:46:33.351Z,85.38
2017-05-15T05:47:35.201Z,84.91
2017-05-15T05:48:37.057Z,83.85
2017-05-15T05:49:38.883Z,84.42
2017-05-15T05:50:40.736Z,84.42
2017-05-15T05:51:42.583Z,84.61
2017-05-15T05:52:44.437Z,85.48
2017-05-15T05:53:46.281Z,85.19
2017-05-15T05:54:48.134Z,85.48
2017-05-15T05:55:49.969Z,85.67
2017-05-15T05:56:51.817Z,85.00
2017-05-15T05:57:53.671Z,85.71
2017-05-15T05:58:55.519Z,84.66
2017-05-15T05:59:57.371Z,84.18
2017-05-15T06:00:59.226Z,84.27
2017-05-15T06:02:01.080Z,83.89
2017-05-15T06:03:03.230Z,84.18
2017-05-15T06:04:05.064Z,83.98
2017-05-15T06:05:06.914Z,82.84
2017-05-15T06:06:08.738Z,83.22
2017-05-15T06:07:10.563Z,83.41
2017-05-15T06:08:12.521Z,82.87
2017-05-15T06:09:14.382Z,82.97
2017-05-15T06:10:16.234Z,83.36
2017-05-15T06:11:18.081Z,82.49
2017-05-15T06:12:19.912Z,82.30
2017-05-15T06:13:22.067Z,81.15
2017-05-15T06:14:23.917Z,81.05
2017-05-15T06:15:25.771Z,81.09
2017-05-15T06:16:27.597Z,81.19
2017-05-15T06:17:29.450Z,81.28
2017-05-15T06:18:31.356Z,80.22
2017-05-15T06:19:33.247Z,79.98
2017-05-15T06:20:35.053Z,80.17
2017-05-15T06:21:36.910Z,79.40
2017-05-15T06:22:38.762Z,78.92
2017-05-15T06:23:40.621Z,79.02
2017-05-15T06:24:42.476Z,78.83
2017-05-15T06:25:44.335Z,79.02
2017-05-15T06:26:46.156Z,78.44
2017-05-15T06:27:47.992Z,77.76
2017-05-15T06:28:49.840Z,77.58
2017-05-15T06:29:51.699Z,77.19
2017-05-15T06:30:53.551Z,78.15
2017-05-15T06:31:55.381Z,77.86
2017-05-15T06:32:57.231Z,77.00
2017-05-15T06:33:59.137Z,77.86
2017-05-15T06:35:00.965Z,76.90
2017-05-15T06:36:02.819Z,77.48
2017-05-15T06:37:04.677Z,77.53
2017-05-15T06:38:06.531Z,77.67
2017-05-15T06:39:08.379Z,77.86
2017-05-15T06:40:10.202Z,79.11
2017-05-15T06:41:12.029Z,77.19
2017-05-15T06:42:13.858Z,76.90
2017-05-15T06:43:15.688Z,76.23
2017-05-15T06:44:17.842Z,76.32
2017-05-15T06:45:19.699Z,77.19
2017-05-15T06:46:21.525Z,77.19
2017-05-15T06:47:23.380Z,77.86
2017-05-15T06:48:25.211Z,78.06
2017-05-15T06:49:27.266Z,77.09
2017-05-15T06:50:29.126Z,78.06
2017-05-15T06:51:30.950Z,76.46
2017-05-15T06:52:32.776Z,76.26
2017-05-15T06:53:34.632Z,75.79
2017-05-15T06:54:36.590Z,76.07
2017-05-15T06:55:38.420Z,74.54
2017-05-15T06:56:40.273Z,73.96
2017-05-15T06:57:42.101Z,72.86
2017-05-15T06:58:43.927Z,74.50
2017-05-15T06:59:46.057Z,74.88
2017-05-15T07:00:47.952Z,74.11
2017-05-15T07:01:49.759Z,74.60
2017-05-15T07:02:51.589Z,76.32
2017-05-15T07:03:53.441Z,75.17
2017-05-15T07:04:55.300Z,74.69
2017-05-15T07:05:57.152Z,74.40
2017-05-15T07:07:10.080Z,75.37
2017-05-15T07:08:11.932Z,75.56
2017-05-15T07:09:13.789Z,74.98
2017-05-15T07:10:16.046Z,75.07
2017-05-15T07:11:17.903Z,74.02
2017-05-15T07:12:19.754Z,74.50
2017-05-15T07:13:21.582Z,73.92
2017-05-15T07:14:23.413Z,74.11
2017-05-15T07:15:25.463Z,74.69
2017-05-15T07:16:27.299Z,73.35
2017-05-15T07:17:29.152Z,74.25
2017-05-15T07:18:31.005Z,74.05
2017-05-15T07:19:32.833Z,74.25
2017-05-15T07:20:34.884Z,73.77
2017-05-15T07:21:36.719Z,72.71
2017-05-15T07:22:38.568Z,73.77
2017-05-15T07:23:40.402Z,74.63
2017-05-15T07:24:42.230Z,75.59
2017-05-15T07:25:44.282Z,74.38
2017-05-15T07:26:46.140Z,75.34
2017-05-15T07:27:47.986Z,73.90
2017-05-15T07:28:49.811Z,73.22
2017-05-15T07:29:51.646Z,71.97
2017-05-15T07:30:53.501Z,72.94
2017-05-15T07:31:55.353Z,73.51
2017-05-15T07:32:57.206Z,73.13
2017-05-15T07:33:59.032Z,72.45
2017-05-15T07:35:00.899Z,72.84
2017-05-15T07:36:02.950Z,72.94
2017-05-15T07:37:04.802Z,73.32
2017-05-15T07:38:06.653Z,73.22
2017-05-15T07:39:08.486Z,72.74
2017-05-15T07:40:10.339Z,73.03
2017-05-15T07:41:12.286Z,74.32
2017-05-15T07:42:14.122Z,74.99
2017-05-15T07:43:15.971Z,74.45
2017-05-15T07:44:17.802Z,73.78
2017-05-15T07:45:19.655Z,72.95
2017-05-15T07:46:21.715Z,71.02
2017-05-15T07:47:23.565Z,71.70
2017-05-15T07:48:25.397Z,72.47
2017-05-15T07:49:27.254Z,72.37
2017-05-15T07:50:29.111Z,72.21
2017-05-15T07:51:30.969Z,72.31
2017-05-15T07:52:32.824Z,72.69
2017-05-15T07:53:34.682Z,70.76
2017-05-15T07:54:36.503Z,70.38
2017-05-15T07:55:38.334Z,70.19
2017-05-15T07:56:40.391Z,70.09
2017-05-15T07:57:42.250Z,69.61
2017-05-15T07:58:44.081Z,69.61
2017-05-15T07:59:45.939Z,68.84
2017-05-15T08:00:47.793Z,67.78
2017-05-15T08:01:49.744Z,67.46
2017-05-15T08:02:51.577Z,68.52
2017-05-15T08:03:53.409Z,68.23
2017-05-15T08:04:55.256Z,67.84
2017-05-15T08:05:57.116Z,67.65
2017-05-15T08:06:58.977Z,68.23
2017-05-15T08:08:00.805Z,67.46
2017-05-15T08:09:02.665Z,68.71
2017-05-15T08:10:04.515Z,68.90
2017-05-15T08:11:06.369Z,68.93
2017-05-15T08:12:08.245Z,68.65
2017-05-15T08:13:10.108Z,68.07
2017-05-15T08:14:11.944Z,68.87
2017-05-15T08:15:13.790Z,69.74
2017-05-15T08:16:15.637Z,70.16
2017-05-15T08:17:17.897Z,67.65
2017-05-15T08:18:19.729Z,66.49
2017-05-15T08:19:21.558Z,65.98
2017-05-15T08:20:23.413Z,65.01
2017-05-15T08:21:25.274Z,64.34
2017-05-15T08:22:27.382Z,64.50
2017-05-15T08:23:29.233Z,64.79
2017-05-15T08:24:31.062Z,66.39
2017-05-15T08:25:32.919Z,67.55
2017-05-15T08:26:34.773Z,66.49
2017-05-15T08:27:36.630Z,66.39
2017-05-15T08:28:38.487Z,66.01
2017-05-15T08:29:40.341Z,66.01
2017-05-15T08:30:42.175Z,66.78
2017-05-15T08:31:44.004Z,67.16
2017-05-15T08:32:45.861Z,67.16
2017-05-15T08:33:47.709Z,66.59
2017-05-15T08:34:49.546Z,67.26
2017-05-15T08:35:51.404Z,67.74
2017-05-15T08:36:53.255Z,68.45
2017-05-15T08:37:55.131Z,67.30
2017-05-15T08:38:56.986Z,66.27
2017-05-15T08:39:58.850Z,65.88
2017-05-15T08:41:00.697Z,66.36
2017-05-15T08:42:02.522Z,65.78
2017-05-15T08:43:04.482Z,65.53
2017-05-15T08:44:06.336Z,65.72
2017-05-15T08:45:08.190Z,65.95
2017-05-15T08:46:10.026Z,65.20
2017-05-15T08:47:11.892Z,62.98
2017-05-15T08:48:13.934Z,62.50
2017-05-15T08:49:15.785Z,61.44
2017-05-15T08:50:17.644Z,60.28
2017-05-15T08:51:19.505Z,61.54
2017-05-15T08:52:21.363Z,61.31
2017-05-15T08:53:23.401Z,62.57
2017-05-15T08:54:25.257Z,62.95
2017-05-15T08:55:27.084Z,63.73
2017-05-15T08:56:28.915Z,63.95
2017-05-15T08:57:30.746Z,62.50
2017-05-15T08:58:32.798Z,60.28
2017-05-15T08:59:34.631Z,59.86
2017-05-15T09:00:36.465Z,61.19
2017-05-15T09:01:38.289Z,61.77
2017-05-15T09:02:40.149Z,63.21
2017-05-15T09:03:42.178Z,63.98
2017-05-15T09:04:44.012Z,65.14
2017-05-15T09:05:45.868Z,64.28
2017-05-15T09:06:47.700Z,62.73
2017-05-15T09:07:49.557Z,63.79
2017-05-15T09:08:51.442Z,63.40
2017-05-15T09:09:53.266Z,63.82
2017-05-15T09:10:55.125Z,63.92
2017-05-15T09:11:56.979Z,63.92
2017-05-15T09:12:58.811Z,64.63
2017-05-15T09:14:00.682Z,65.11
2017-05-15T09:15:02.517Z,64.43
2017-05-15T09:16:04.368Z,64.63
2017-05-15T09:17:06.201Z,64.95
2017-05-15T09:18:08.027Z,62.12
2017-05-15T09:19:13.057Z,58.35
2017-05-15T09:20:14.890Z,59.19
2017-05-15T09:21:16.750Z,61.22
2017-05-15T09:22:18.612Z,60.06
2017-05-15T09:23:20.468Z,60.31
2017-05-15T09:24:22.425Z,60.71
2017-05-15T09:25:24.278Z,61.96
2017-05-15T09:26:26.144Z,62.44
2017-05-15T09:27:28.000Z,63.92
2017-05-15T09:28:29.857Z,61.54
2017-05-15T09:29:31.715Z,59.89
2017-05-15T09:30:33.570Z,58.83
2017-05-15T09:31:35.430Z,60.18
2017-05-15T09:32:37.294Z,61.25
2017-05-15T09:33:39.144Z,61.34
2017-05-15T09:34:41.195Z,61.54
2017-05-15T09:35:43.053Z,61.34
2017-05-15T09:36:44.910Z,60.47
2017-05-15T09:37:46.743Z,60.57
2017-05-15T09:38:48.597Z,59.70
2017-05-15T09:39:50.481Z,60.28
2017-05-15T09:40:52.332Z,61.54
2017-05-15T09:41:54.161Z,60.25
2017-05-15T09:42:55.992Z,60.54
2017-05-15T09:43:57.821Z,60.80
2017-05-15T09:44:59.784Z,60.80
2017-05-15T09:46:01.642Z,60.13
2017-05-15T09:47:03.472Z,60.58
2017-05-15T09:48:05.322Z,61.25
2017-05-15T09:49:07.177Z,59.78
2017-05-15T09:50:09.034Z,60.16
2017-05-15T09:51:10.894Z,61.22
2017-05-15T09:52:12.748Z,61.90
2017-05-15T09:53:14.607Z,62.28
2017-05-15T09:54:16.467Z,62.60
2017-05-15T09:55:18.313Z,59.80
2017-05-15T09:56:20.148Z,59.32
2017-05-15T09:57:21.976Z,58.91
2017-05-15T09:58:23.805Z,56.40
2017-05-15T09:59:25.655Z,55.73
2017-05-15T10:00:27.685Z,56.88
2017-05-15T10:01:29.517Z,57.27
2017-05-15T10:02:31.378Z,57.37
2017-05-15T10:03:33.231Z,58.72
2017-05-15T10:04:35.059Z,58.07
2017-05-15T10:05:37.016Z,57.49
2017-05-15T10:06:38.870Z,55.98
2017-05-15T10:07:40.728Z,55.01
2017-05-15T10:08:42.581Z,55.40
2017-05-15T10:09:44.417Z,56.56
2017-05-15T10:10:46.321Z,58.48
2017-05-15T10:11:48.183Z,58.58
2017-05-15T10:12:50.038Z,57.81
2017-05-15T10:13:51.889Z,58.87
2017-05-15T10:14:53.721Z,58.10
2017-05-15T10:15:55.748Z,56.94
2017-05-15T10:16:57.601Z,56.07
2017-05-15T10:17:59.428Z,56.56
2017-05-15T10:19:01.289Z,56.56
2017-05-15T10:20:03.140Z,56.81
2017-05-15T10:21:05.195Z,57.01
2017-05-15T10:22:07.052Z,57.87
2017-05-15T10:23:08.906Z,59.03
2017-05-15T10:24:10.763Z,56.62
2017-05-15T10:25:12.617Z,56.91
2017-05-15T10:26:14.676Z,56.52
2017-05-15T10:27:16.533Z,56.52
2017-05-15T10:28:18.380Z,55.08
2017-05-15T10:29:20.215Z,55.18
2017-05-15T10:30:22.064Z,53.92
2017-05-15T10:31:23.940Z,51.68
2017-05-15T10:32:25.774Z,50.04
2017-05-15T10:33:27.629Z,50.90
2017-05-15T10:34:29.487Z,52.16
2017-05-15T10:35:31.343Z,51.80
2017-05-15T10:36:33.373Z,51.89
2017-05-15T10:37:35.224Z,51.51
2017-05-15T10:38:37.082Z,52.76
2017-05-15T10:39:38.948Z,53.05
2017-05-15T10:40:40.807Z,52.59
2017-05-15T10:41:42.957Z,51.53
2017-05-15T10:42:44.814Z,54.14
2017-05-15T10:43:46.678Z,54.55
2017-05-15T10:44:48.523Z,55.55
2017-05-15T10:45:50.381Z,54.99
2017-05-15T10:46:52.235Z,52.39
2017-05-15T10:47:54.072Z,51.73
2017-05-15T10:48:55.929Z,52.12
2017-05-15T10:49:57.784Z,51.37
2017-05-15T10:50:59.617Z,48.18
2017-05-15T10:52:01.477Z,47.31
2017-05-15T10:53:03.327Z,47.02
2017-05-15T10:54:05.161Z,47.00
2017-05-15T10:55:06.994Z,47.96
2017-05-15T10:56:08.848Z,48.25
2017-05-15T10:57:10.727Z,48.23
2017-05-15T10:58:12.587Z,49.49
2017-05-15T10:59:14.419Z,51.23
2017-05-15T11:00:16.253Z,49.95
2017-05-15T11:01:18.081Z,50.62
2017-05-15T11:02:19.965Z,51.97
2017-05-15T11:03:21.823Z,51.20
2017-05-15T11:04:23.683Z,50.98
2017-05-15T11:05:25.513Z,50.50
2017-05-15T11:06:27.365Z,50.98
2017-05-15T11:07:29.227Z,50.69
2017-05-15T11:08:31.082Z,50.59
2017-05-15T11:09:32.942Z,51.27
2017-05-15T11:10:34.799Z,50.11
2017-05-15T11:11:36.660Z,50.31
2017-05-15T11:12:38.516Z,51.37
2017-05-15T11:13:40.375Z,52.89
2017-05-15T11:14:42.233Z,52.79
2017-05-15T11:15:44.082Z,54.14
2017-05-15T11:16:45.918Z,55.01
2017-05-15T11:17:47.799Z,53.95
2017-05-15T11:18:49.626Z,54.05
2017-05-15T11:19:51.487Z,54.62
2017-05-15T11:20:53.344Z,53.37
2017-05-15T11:21:55.172Z,52.50
2017-05-15T11:22:57.047Z,54.33
2017-05-15T11:23:58.908Z,51.73
2017-05-15T11:25:00.766Z,49.51
2017-05-15T11:26:02.625Z,48.28
2017-05-15T11:27:04.482Z,48.64
2017-05-15T11:28:06.334Z,46.73
2017-05-15T11:29:08.198Z,46.44
2017-05-15T11:30:10.053Z,47.22
2017-05-15T11:31:11.911Z,47.22
2017-05-15T11:32:13.769Z,47.22
2017-05-15T11:33:15.723Z,46.64
2017-05-15T11:34:17.584Z,46.83
2017-05-15T11:35:19.443Z,47.31
2017-05-15T11:36:21.297Z,47.81
2017-05-15T11:37:23.135Z,48.79
2017-05-15T11:38:25.191Z,47.91
2017-05-15T11:39:27.053Z,48.11
2017-05-15T11:40:28.910Z,48.01
2017-05-15T11:41:30.763Z,49.17
2017-05-15T11:42:32.597Z,50.62
2017-05-15T11:43:34.481Z,52.65
2017-05-15T11:44:36.337Z,52.45
2017-05-15T11:45:38.192Z,51.59
2017-05-15T11:46:40.022Z,50.91
2017-05-15T11:47:41.862Z,50.52
2017-05-15T11:48:46.921Z,51.68
2017-05-15T11:49:48.779Z,51.78
2017-05-15T11:50:50.608Z,51.68
2017-05-15T11:51:52.465Z,51.68
2017-05-15T11:52:54.323Z,52.07
2017-05-15T11:53:56.430Z,52.65
2017-05-15T11:54:58.415Z,53.33
2017-05-15T11:56:00.276Z,52.36
2017-05-15T11:57:02.133Z,51.97
2017-05-15T11:58:03.994Z,54.10
2017-05-15T11:59:05.906Z,52.87
2017-05-15T12:00:07.760Z,52.51
2017-05-15T12:01:09.624Z,52.02
2017-05-15T12:02:11.451Z,51.47
2017-05-15T12:03:13.315Z,50.89
2017-05-15T12:04:15.198Z,48.57
2017-05-15T12:05:17.028Z,48.86
2017-05-15T12:06:18.857Z,48.25
2017-05-15T12:07:20.684Z,48.54
2017-05-15T12:08:22.552Z,49.68
2017-05-15T12:09:24.460Z,50.62
2017-05-15T12:10:26.321Z,51.59
2017-05-15T12:11:28.182Z,52.53
2017-05-15T12:12:30.007Z,54.14
2017-05-15T12:13:31.843Z,55.10
2017-05-15T12:14:33.752Z,55.08
2017-05-15T12:15:35.607Z,57.49
2017-05-15T12:16:37.467Z,65.98
2017-05-15T12:17:39.328Z,75.93
2017-05-15T12:18:41.187Z,81.01
2017-05-15T12:19:43.044Z,85.39
2017-05-15T12:20:44.902Z,85.25
2017-05-15T12:21:46.753Z,87.48
2017-05-15T12:22:48.611Z,89.50
2017-05-15T12:23:50.433Z,91.85
2017-05-15T12:24:52.326Z,91.85
2017-05-15T12:25:54.182Z,92.33
2017-05-15T12:26:56.036Z,91.28
2017-05-15T12:27:57.863Z,90.99
2017-05-15T12:28:59.695Z,88.83
2017-05-15T12:30:01.647Z,88.06
2017-05-15T12:31:03.502Z,90.08
2017-05-15T12:32:05.362Z,88.16
2017-05-15T12:33:07.212Z,86.14
2017-05-15T12:34:09.039Z,88.39
2017-05-15T12:35:11.074Z,88.01
2017-05-15T12:36:12.896Z,86.85
2017-05-15T12:37:14.752Z,83.83
2017-05-15T12:38:16.610Z,81.52
2017-05-15T12:39:18.466Z,76.90
2017-05-15T12:40:20.322Z,79.60
2017-05-15T12:41:22.181Z,81.52
2017-05-15T12:42:24.036Z,81.61
2017-05-15T12:43:25.895Z,78.34
2017-05-15T12:44:27.747Z,74.79
2017-05-15T12:45:29.649Z,74.60
2017-05-15T12:46:31.479Z,73.15
2017-05-15T12:47:33.335Z,72.67
2017-05-15T12:48:35.166Z,72.48
2017-05-15T12:49:37.023Z,73.73
2017-05-15T12:50:38.976Z,73.15
2017-05-15T12:51:40.804Z,73.25
2017-05-15T12:52:42.633Z,73.15
2017-05-15T12:53:44.491Z,75.07
2017-05-15T12:54:46.339Z,75.65
2017-05-15T12:55:48.213Z,74.79
2017-05-15T12:56:50.046Z,75.46
2017-05-15T12:57:51.879Z,73.63
2017-05-15T12:58:53.722Z,74.34
2017-05-15T12:59:55.555Z,72.03
2017-05-15T13:00:57.409Z,72.42
2017-05-15T13:01:59.267Z,70.30
2017-05-15T13:03:01.121Z,69.92
2017-05-15T13:04:02.953Z,69.06
2017-05-15T13:05:04.810Z,67.61
2017-05-15T13:06:06.664Z,67.99
2017-05-15T13:07:08.522Z,68.09
2017-05-15T13:08:10.376Z,67.80
2017-05-15T13:09:12.205Z,67.35
2017-05-15T13:10:14.034Z,67.83
2017-05-15T13:11:16.063Z,66.88
2017-05-15T13:12:17.913Z,66.88
2017-05-15T13:13:19.772Z,67.07
2017-05-15T13:14:21.626Z,66.10
2017-05-15T13:15:23.464Z,67.68
2017-05-15T13:16:25.539Z,69.60
2017-05-15T13:17:27.390Z,66.52